Airfield :
LOGIN :

Register | Disclaimer

   EN    FR    IT 

 










Legend :    VFR   Marginal VFR   IFR   Intensive IFR   Very Intensive IFR
Visi :
Ceiling :
>= 8 km
>= 3000ft
5 to 8 km
1000 to 3000 ft
1500m to 5 km
500 to 1000 ft
800 to 1500m
200 to 500 ft
< 800m
< 200 ft
Symbols :   Thunderstorms  Fog  Heavy snow  Heavy precipitations  Wind > 20 kt
SIGMETs :     Misc.  Thunderstorms  Icing  Turbulence  Mountain Waves  Volcanic Ashes






- Airport Elevation : 13 ft
- IATA code : SNR


LFRZ - St-Nazaire

CURRENT METAR :
  • 300600Z AUTO 23013KT 9999 FEW023 SCT028 OVC036 16/12 Q1023 NOSIG

EXPIRED METARs :
  • 300530Z AUTO 22012KT 9999 FEW026 OVC038 15/13 Q1023 NOSIG
  • 300500Z AUTO 22013KT 9999 OVC039 15/13 Q1023 TEMPO BKN012
  • 300430Z AUTO 22013KT 9999 OVC041 15/14 Q1023 TEMPO BKN012
  • 300400Z AUTO 22013KT 9999 OVC041 15/13 Q1023 TEMPO BKN012
  • 300330Z AUTO 22014KT 9999 OVC042 15/14 Q1023 TEMPO BKN012

TAF TAF LFRZ
Valid from the 30 at 06:00 until the 31 at 06:00 UTC


300500Z 3006/3106 23013KT 9999 BKN040
BECMG 3015/3017 17007KT
BECMG 3017/3019 4000 BR BKN007
PROB40
TEMPO 3019/3106 0500 FG OVC002



MET'MAP, your aeronautical weather chart ! - Copyright ORBIFLY December 2007 - Disclaimer

ORBIFLY MET'MAP TEAM :

Programming & Development : Alexandra Zaïnal
Concept & original design : Baudouin d'Aumeries
Assistance for programming : Marc-Olivier Méhu
Technical & hardware support : Manuel Goepfert

Contact : metmap@orbifly.com




SOURCES & CREDITS :

   NOAA